createdAt,value
2022-09-06T00:00:30.610Z,11.15
2022-09-06T00:02:59.060Z,11.12
2022-09-06T00:05:27.706Z,11.09
2022-09-06T00:07:58.992Z,11.08
2022-09-06T00:10:29.019Z,11.05
2022-09-06T00:13:01.944Z,11.03
2022-09-06T00:15:31.091Z,11.02
2022-09-06T00:18:00.458Z,10.99
2022-09-06T00:20:29.891Z,10.97
2022-09-06T00:23:00.066Z,10.95
2022-09-06T00:25:29.861Z,10.93
2022-09-06T00:27:59.608Z,10.92
2022-09-06T00:30:29.619Z,10.90
2022-09-06T00:32:58.500Z,10.88
2022-09-06T00:35:28.117Z,10.85
2022-09-06T00:38:00.721Z,10.85
2022-09-06T00:40:33.622Z,10.84
2022-09-06T00:43:02.069Z,10.82
2022-09-06T00:45:32.206Z,10.80
2022-09-06T00:48:04.464Z,10.79
2022-09-06T00:50:33.787Z,10.78
2022-09-06T00:53:02.603Z,10.78
2022-09-06T00:55:31.073Z,10.76
2022-09-06T00:57:59.553Z,10.75
2022-09-06T01:00:27.957Z,10.73
2022-09-06T01:02:56.369Z,10.73
2022-09-06T01:05:39.002Z,10.72
2022-09-06T01:08:15.967Z,10.71
2022-09-06T01:11:09.844Z,10.70
2022-09-06T01:13:50.823Z,10.68
2022-09-06T01:16:29.325Z,10.66
2022-09-06T01:19:17.628Z,10.64
2022-09-06T01:21:53.733Z,10.62
2022-09-06T01:24:50.408Z,10.60
2022-09-06T01:27:49.260Z,10.58
2022-09-06T01:30:19.592Z,10.57
2022-09-06T01:32:56.655Z,10.54
2022-09-06T01:35:34.106Z,10.54
2022-09-06T01:38:04.485Z,10.53
2022-09-06T01:40:35.876Z,10.52
2022-09-06T01:43:10.286Z,10.50
2022-09-06T01:45:50.875Z,10.49
2022-09-06T01:48:30.037Z,10.49
2022-09-06T01:51:14.796Z,10.47
2022-09-06T01:53:59.358Z,10.46
2022-09-06T01:56:37.993Z,10.45
2022-09-06T01:59:26.253Z,10.44
2022-09-06T02:02:03.841Z,10.43
2022-09-06T02:04:41.146Z,10.42
2022-09-06T02:07:18.826Z,10.41
2022-09-06T02:09:51.893Z,10.39
2022-09-06T02:12:22.796Z,10.38
2022-09-06T02:14:56.808Z,10.37
2022-09-06T02:17:30.431Z,10.35
2022-09-06T02:20:03.645Z,10.32
2022-09-06T02:22:37.644Z,10.28
2022-09-06T02:25:10.495Z,10.26
2022-09-06T02:27:39.421Z,10.25
2022-09-06T02:30:10.349Z,10.22
2022-09-06T02:32:44.313Z,10.20
2022-09-06T02:35:16.410Z,10.18
2022-09-06T02:37:45.207Z,10.15
2022-09-06T02:40:13.777Z,10.13
2022-09-06T02:42:42.204Z,10.11
2022-09-06T02:45:14.190Z,10.10
2022-09-06T02:47:42.609Z,10.07
2022-09-06T02:50:12.642Z,10.05
2022-09-06T02:52:41.027Z,10.03
2022-09-06T02:55:10.667Z,10.00
2022-09-06T02:57:39.106Z,9.97
2022-09-06T03:00:10.098Z,9.96
2022-09-06T03:02:38.551Z,9.93
2022-09-06T03:05:08.294Z,9.90
2022-09-06T03:07:36.695Z,9.87
2022-09-06T03:10:09.045Z,9.85
2022-09-06T03:12:37.677Z,9.84
2022-09-06T03:15:08.257Z,9.81
2022-09-06T03:17:36.900Z,9.80
2022-09-06T03:20:08.902Z,9.79
2022-09-06T03:22:37.377Z,9.77
2022-09-06T03:25:07.943Z,9.76
2022-09-06T03:27:37.202Z,9.73
2022-09-06T03:30:08.994Z,9.71
2022-09-06T03:32:37.475Z,9.70
2022-09-06T03:35:07.479Z,9.68
2022-09-06T03:37:35.988Z,9.66
2022-09-06T03:40:07.750Z,9.63
2022-09-06T03:42:36.472Z,9.60
2022-09-06T03:45:07.007Z,9.57
2022-09-06T03:47:35.441Z,9.54
2022-09-06T03:50:04.895Z,9.51
2022-09-06T03:52:33.398Z,9.50
2022-09-06T03:55:02.784Z,9.47
2022-09-06T03:57:31.530Z,9.46
2022-09-06T03:59:59.947Z,9.44
2022-09-06T04:02:28.475Z,9.42
2022-09-06T04:05:04.161Z,9.39
2022-09-06T04:07:32.623Z,9.39
2022-09-06T04:10:01.098Z,9.38
2022-09-06T04:12:29.550Z,9.36
2022-09-06T04:14:57.918Z,9.35
2022-09-06T04:17:26.343Z,9.33
2022-09-06T04:19:55.037Z,9.33
2022-09-06T04:26:09.842Z,9.28
2022-09-06T04:28:40.727Z,9.26
2022-09-06T04:31:09.260Z,9.27
2022-09-06T04:33:38.033Z,9.27
2022-09-06T04:36:09.625Z,9.27
2022-09-06T04:38:39.754Z,9.26
2022-09-06T04:41:09.154Z,9.26
2022-09-06T04:43:37.825Z,9.27
2022-09-06T04:46:11.105Z,9.27
2022-09-06T04:48:39.526Z,9.27
2022-09-06T04:51:07.944Z,9.27
2022-09-06T04:53:36.355Z,9.28
2022-09-06T04:56:05.736Z,9.28
2022-09-06T04:58:34.223Z,9.27
2022-09-06T05:01:02.593Z,9.29
2022-09-06T05:03:30.959Z,9.30
2022-09-06T05:06:10.370Z,9.32
2022-09-06T05:08:40.022Z,9.35
2022-09-06T05:11:10.331Z,9.37
2022-09-06T05:13:39.407Z,9.39
2022-09-06T05:30:17.286Z,9.91
2022-09-06T05:32:45.742Z,10.02
2022-09-06T05:35:15.434Z,10.03
2022-09-06T05:37:43.902Z,10.06
2022-09-06T05:40:12.522Z,10.08
2022-09-06T05:42:41.102Z,10.09
2022-09-06T05:45:10.667Z,10.13
2022-09-06T05:47:39.140Z,10.15
2022-09-06T05:50:09.235Z,10.18
2022-09-06T05:52:38.711Z,10.21
2022-09-06T05:55:09.073Z,10.25
2022-09-06T05:57:39.807Z,10.30
2022-09-06T06:00:11.666Z,10.34
2022-09-06T06:02:40.375Z,10.40
2022-09-06T06:05:09.588Z,10.45
2022-09-06T06:07:37.982Z,10.50
2022-09-06T06:10:08.260Z,10.55
2022-09-06T06:12:36.666Z,10.61
2022-09-06T06:15:06.661Z,10.66
2022-09-06T06:17:35.093Z,10.71
2022-09-06T06:20:04.256Z,10.76
2022-09-06T06:22:32.641Z,10.82
2022-09-06T06:25:04.050Z,10.88
2022-09-06T06:27:34.295Z,10.94
2022-09-06T06:30:03.266Z,11.00
2022-09-06T06:32:31.656Z,11.07
2022-09-06T06:35:00.246Z,11.13
2022-09-06T06:37:28.852Z,11.19
2022-09-06T06:39:58.388Z,11.24
2022-09-06T06:42:26.762Z,11.30
2022-09-06T06:44:55.138Z,11.36
2022-09-06T06:47:23.610Z,11.42
2022-09-06T06:49:52.019Z,11.47
2022-09-06T06:52:20.915Z,11.53
2022-09-06T06:54:50.174Z,11.58
2022-09-06T06:57:18.599Z,11.65
2022-09-06T06:59:46.939Z,11.71
2022-09-06T07:02:16.668Z,11.77
2022-09-06T07:04:45.190Z,11.83
2022-09-06T07:12:46.061Z,12.02
2022-09-06T07:15:14.630Z,12.10
2022-09-06T07:17:43.587Z,12.17
2022-09-06T07:22:45.479Z,12.31
2022-09-06T07:25:21.006Z,12.38
2022-09-06T07:27:59.748Z,12.43
2022-09-06T07:30:30.109Z,12.50
2022-09-06T07:33:00.551Z,12.57
2022-09-06T07:35:29.071Z,12.65
2022-09-06T07:37:58.913Z,12.73
2022-09-06T07:40:29.096Z,12.82
2022-09-06T07:42:58.102Z,12.91
2022-09-06T07:45:26.911Z,12.98
2022-09-06T07:47:58.236Z,13.06
2022-09-06T07:53:20.466Z,13.22
2022-09-06T07:55:54.515Z,13.31
2022-09-06T07:58:23.008Z,13.38
2022-09-06T08:00:51.510Z,13.47
2022-09-06T08:03:19.969Z,13.54
2022-09-06T08:11:29.306Z,13.83
2022-09-06T08:13:59.813Z,13.91
2022-09-06T08:16:29.983Z,13.98
2022-09-06T08:18:59.863Z,14.06
2022-09-06T08:21:31.460Z,14.14
2022-09-06T08:24:01.399Z,14.23
2022-09-06T08:26:32.304Z,14.29
2022-09-06T08:29:02.996Z,14.36
2022-09-06T08:31:32.858Z,14.40
2022-09-06T08:34:01.652Z,14.46
2022-09-06T08:36:31.135Z,14.54
2022-09-06T08:39:00.752Z,14.63
2022-09-06T08:41:33.625Z,14.70
2022-09-06T08:47:00.535Z,14.88
2022-09-06T08:49:32.131Z,14.96
2022-09-06T08:52:16.695Z,15.03
2022-09-06T08:54:53.646Z,15.10
2022-09-06T08:57:40.643Z,15.18
2022-09-06T09:00:13.001Z,15.25
2022-09-06T09:02:47.246Z,15.31
2022-09-06T09:05:22.802Z,15.36
2022-09-06T09:08:06.151Z,15.43
2022-09-06T09:10:42.285Z,15.52
2022-09-06T09:13:22.068Z,15.59
2022-09-06T09:15:50.518Z,15.67
2022-09-06T09:18:23.481Z,15.72
2022-09-06T09:20:52.422Z,15.78
2022-09-06T09:23:21.223Z,15.83
2022-09-06T09:25:52.494Z,15.90
2022-09-06T09:28:24.081Z,15.99
2022-09-06T09:30:55.034Z,16.05
2022-09-06T09:33:27.007Z,16.13
2022-09-06T09:35:56.706Z,16.19
2022-09-06T09:38:28.179Z,16.24
2022-09-06T09:41:00.094Z,16.30
2022-09-06T09:43:31.179Z,16.36
2022-09-06T09:46:12.538Z,16.40
2022-09-06T09:48:44.208Z,16.42
2022-09-06T09:51:27.362Z,16.48
2022-09-06T09:53:58.185Z,16.57
2022-09-06T09:56:41.073Z,16.65
2022-09-06T09:59:26.023Z,16.70
2022-09-06T10:01:57.468Z,16.75
2022-09-06T10:04:46.459Z,16.80
2022-09-06T10:07:18.768Z,16.84
2022-09-06T10:09:49.357Z,16.88
2022-09-06T10:12:27.017Z,16.92
2022-09-06T10:14:56.666Z,16.97
2022-09-06T10:17:31.577Z,17.02
2022-09-06T10:20:07.342Z,17.07
2022-09-06T10:22:47.798Z,17.10
2022-09-06T10:25:38.257Z,17.12
2022-09-06T10:28:27.956Z,17.20
2022-09-06T10:31:42.809Z,17.27
2022-09-06T10:34:41.476Z,17.31
2022-09-06T10:37:23.680Z,17.34
2022-09-06T10:39:57.456Z,17.40
2022-09-06T10:42:39.131Z,17.46
2022-09-06T10:45:27.030Z,17.51
2022-09-06T10:48:02.109Z,17.54
2022-09-06T10:50:39.753Z,17.57
2022-09-06T10:53:13.485Z,17.59
2022-09-06T10:55:47.808Z,17.62
2022-09-06T10:58:25.298Z,17.66
2022-09-06T11:00:55.727Z,17.73
2022-09-06T11:06:26.825Z,17.82
2022-09-06T11:09:08.969Z,17.85
2022-09-06T11:11:44.088Z,17.88
2022-09-06T11:14:14.768Z,17.90
2022-09-06T11:16:51.730Z,17.92
2022-09-06T11:19:25.418Z,17.95
2022-09-06T11:22:38.421Z,17.96
2022-09-06T11:25:35.806Z,18.01
2022-09-06T11:28:08.542Z,18.02
2022-09-06T11:30:37.357Z,18.02
2022-09-06T11:33:23.099Z,18.03
2022-09-06T11:35:52.499Z,18.03
2022-09-06T11:38:26.215Z,18.06
2022-09-06T11:41:00.961Z,18.10
2022-09-06T11:43:47.741Z,18.12
2022-09-06T11:46:52.496Z,18.11
2022-09-06T11:49:33.192Z,18.07
2022-09-06T11:52:03.017Z,18.02
2022-09-06T11:54:44.084Z,17.98
2022-09-06T11:57:17.163Z,17.93
2022-09-06T11:59:56.387Z,17.90
2022-09-06T12:02:35.783Z,17.85
2022-09-06T12:05:16.295Z,17.83
2022-09-06T12:08:16.692Z,17.82
2022-09-06T12:10:56.922Z,17.80
2022-09-06T12:13:42.274Z,17.80
2022-09-06T12:16:12.337Z,17.80
2022-09-06T12:19:01.379Z,17.76
2022-09-06T12:21:51.660Z,17.75
2022-09-06T12:24:52.239Z,17.69
2022-09-06T12:27:22.316Z,17.67
2022-09-06T12:30:01.210Z,17.70
2022-09-06T12:32:51.340Z,17.77
2022-09-06T12:38:16.718Z,17.87
2022-09-06T12:40:47.533Z,17.90
2022-09-06T12:43:21.288Z,17.93
2022-09-06T12:45:52.263Z,17.96
2022-09-06T12:48:28.489Z,18.00
2022-09-06T12:51:03.151Z,18.06
2022-09-06T12:53:34.213Z,18.06
2022-09-06T12:56:08.288Z,18.03
2022-09-06T12:58:38.881Z,18.02
2022-09-06T13:01:13.840Z,18.04
2022-09-06T13:03:48.823Z,18.07
2022-09-06T13:06:26.052Z,18.06
2022-09-06T13:08:57.374Z,18.07
2022-09-06T13:11:30.955Z,18.08
2022-09-06T13:14:00.440Z,18.13
2022-09-06T13:16:36.249Z,18.19
2022-09-06T13:19:13.117Z,18.25
2022-09-06T13:21:42.998Z,18.28
2022-09-06T13:24:23.277Z,18.32
2022-09-06T13:26:52.476Z,18.39
2022-09-06T13:29:29.726Z,18.46
2022-09-06T13:32:00.977Z,18.50
2022-09-06T13:34:31.384Z,18.54
2022-09-06T13:37:30.407Z,18.59
2022-09-06T13:39:59.401Z,18.63
2022-09-06T13:42:32.841Z,18.66
2022-09-06T13:45:19.962Z,18.68
2022-09-06T13:47:48.484Z,18.68
2022-09-06T13:50:20.677Z,18.65
2022-09-06T13:52:54.579Z,18.64
2022-09-06T13:55:24.936Z,18.61
2022-09-06T13:57:56.528Z,18.59
2022-09-06T14:00:25.304Z,18.59
2022-09-06T14:02:54.947Z,18.61
2022-09-06T14:05:23.429Z,18.61
2022-09-06T14:07:51.939Z,18.56
2022-09-06T14:10:23.279Z,18.58
2022-09-06T14:12:54.015Z,18.63
2022-09-06T14:15:25.142Z,18.67
2022-09-06T14:17:53.727Z,18.65
2022-09-06T14:20:24.111Z,18.62
2022-09-06T14:22:52.843Z,18.56
2022-09-06T14:25:22.337Z,18.52
2022-09-06T14:27:50.992Z,18.48
2022-09-06T14:30:20.138Z,18.45
2022-09-06T14:32:48.686Z,18.43
2022-09-06T14:35:17.232Z,18.41
2022-09-06T14:37:45.754Z,18.39
2022-09-06T14:40:14.970Z,18.38
2022-09-06T14:42:45.694Z,18.38
2022-09-06T14:45:19.423Z,18.36
2022-09-06T14:47:47.940Z,18.34
2022-09-06T14:50:16.669Z,18.33
2022-09-06T14:52:45.206Z,18.32
2022-09-06T14:55:13.697Z,18.30
2022-09-06T14:57:42.467Z,18.29
2022-09-06T15:03:36.874Z,18.27
2022-09-06T15:06:08.023Z,18.25
2022-09-06T15:08:37.595Z,18.20
2022-09-06T15:11:07.469Z,18.14
2022-09-06T15:13:36.684Z,18.10
2022-09-06T15:16:06.020Z,18.08
2022-09-06T15:18:35.239Z,18.08
2022-09-06T15:21:10.590Z,18.03
2022-09-06T15:23:39.367Z,18.01
2022-09-06T15:26:08.999Z,17.99
2022-09-06T15:28:52.552Z,17.98
2022-09-06T15:31:21.911Z,17.99
2022-09-06T15:33:52.127Z,17.99
2022-09-06T15:36:22.021Z,17.97
2022-09-06T15:38:53.350Z,17.95
2022-09-06T15:45:46.690Z,17.91
2022-09-06T15:48:25.118Z,17.90
2022-09-06T15:50:53.662Z,17.88
2022-09-06T15:53:23.965Z,17.87
2022-09-06T15:56:00.121Z,17.83
2022-09-06T15:58:29.905Z,17.80
2022-09-06T16:01:03.478Z,17.74
2022-09-06T16:03:34.779Z,17.72
2022-09-06T16:08:58.120Z,17.64
2022-09-06T16:11:28.052Z,17.57
2022-09-06T16:13:57.038Z,17.54
2022-09-06T16:16:25.588Z,17.50
2022-09-06T16:18:54.538Z,17.45
2022-09-06T16:21:25.160Z,17.43
2022-09-06T16:23:55.881Z,17.43
2022-09-06T16:26:26.633Z,17.41
2022-09-06T16:28:55.437Z,17.40
2022-09-06T16:31:24.334Z,17.39
2022-09-06T16:33:53.544Z,17.39
2022-09-06T16:36:22.577Z,17.41
2022-09-06T16:38:51.306Z,17.41
2022-09-06T16:41:24.658Z,17.42
2022-09-06T16:43:53.751Z,17.41
2022-09-06T16:46:25.238Z,17.41
2022-09-06T16:48:56.025Z,17.39
2022-09-06T16:51:26.067Z,17.34
2022-09-06T16:53:55.404Z,17.28
2022-09-06T16:56:25.914Z,17.24
2022-09-06T16:58:56.906Z,17.19
2022-09-06T17:01:27.023Z,17.14
2022-09-06T17:03:56.917Z,17.07
2022-09-06T17:06:25.505Z,16.99
2022-09-06T17:08:55.760Z,16.93
2022-09-06T17:11:25.309Z,16.86
2022-09-06T17:13:55.315Z,16.80
2022-09-06T17:16:43.333Z,16.75
2022-09-06T17:19:13.392Z,16.67
2022-09-06T17:21:42.244Z,16.61
2022-09-06T17:24:11.574Z,16.55
2022-09-06T17:26:41.076Z,16.50
2022-09-06T17:29:10.184Z,16.45
2022-09-06T17:31:38.908Z,16.38
2022-09-06T17:34:07.585Z,16.34
2022-09-06T17:36:37.401Z,16.30
2022-09-06T17:39:09.766Z,16.26
2022-09-06T17:41:40.706Z,16.23
2022-09-06T17:44:10.723Z,16.17
2022-09-06T17:46:52.033Z,16.15
2022-09-06T17:49:27.129Z,16.09
2022-09-06T17:51:56.214Z,16.05
2022-09-06T17:54:25.058Z,16.02
2022-09-06T17:56:53.994Z,15.96
2022-09-06T17:59:23.012Z,15.90
2022-09-06T18:01:52.290Z,15.86
2022-09-06T18:04:21.035Z,15.83
2022-09-06T18:06:49.891Z,15.80
2022-09-06T18:09:18.597Z,15.77
2022-09-06T18:11:47.107Z,15.73
2022-09-06T18:14:20.232Z,15.69
2022-09-06T18:16:52.076Z,15.67
2022-09-06T18:19:23.085Z,15.64
2022-09-06T18:21:56.622Z,15.61
2022-09-06T18:24:25.887Z,15.57
2022-09-06T18:26:55.199Z,15.53
2022-09-06T18:29:23.884Z,15.49
2022-09-06T18:31:53.879Z,15.45
2022-09-06T18:34:22.765Z,15.40
2022-09-06T18:36:53.504Z,15.35
2022-09-06T18:39:22.312Z,15.32
2022-09-06T18:42:00.095Z,15.26
2022-09-06T18:44:57.068Z,15.23
2022-09-06T18:47:27.336Z,15.17
2022-09-06T18:49:56.294Z,15.15
2022-09-06T18:52:24.911Z,15.11
2022-09-06T18:55:37.557Z,15.10
2022-09-06T18:58:13.674Z,15.07
2022-09-06T19:05:08.518Z,15.01
2022-09-06T19:07:37.139Z,14.99
2022-09-06T19:10:07.892Z,14.99
2022-09-06T19:12:36.795Z,14.97
2022-09-06T19:15:07.004Z,14.93
2022-09-06T19:17:39.282Z,14.90
2022-09-06T19:20:12.555Z,14.86
2022-09-06T19:22:42.671Z,14.83
2022-09-06T19:25:11.409Z,14.81
2022-09-06T19:27:46.873Z,14.78
2022-09-06T19:30:19.436Z,14.75
2022-09-06T19:32:48.188Z,14.72
2022-09-06T19:35:19.104Z,14.68
2022-09-06T19:37:47.718Z,14.63
2022-09-06T19:40:16.768Z,14.61
2022-09-06T19:42:46.162Z,14.57
2022-09-06T19:45:15.155Z,14.53
2022-09-06T19:47:44.709Z,14.49
2022-09-06T19:50:13.713Z,14.46
2022-09-06T19:52:42.316Z,14.42
2022-09-06T19:55:10.948Z,14.38
2022-09-06T19:57:39.391Z,14.33
2022-09-06T20:00:10.719Z,14.28
2022-09-06T20:02:51.202Z,14.26
2022-09-06T20:05:19.740Z,14.22
2022-09-06T20:07:50.589Z,14.19
2022-09-06T20:10:19.337Z,14.17
2022-09-06T20:12:47.920Z,14.14
2022-09-06T20:15:16.758Z,14.11
2022-09-06T20:17:45.297Z,14.07
2022-09-06T20:20:14.474Z,14.03
2022-09-06T20:22:46.779Z,13.99
2022-09-06T20:25:15.789Z,13.95
2022-09-06T20:27:46.665Z,13.93
2022-09-06T20:30:15.596Z,13.90
2022-09-06T20:32:44.228Z,13.86
2022-09-06T20:35:14.738Z,13.82
2022-09-06T20:37:43.376Z,13.79
2022-09-06T20:40:13.729Z,13.74
2022-09-06T20:42:45.507Z,13.72
2022-09-06T20:45:14.754Z,13.69
2022-09-06T20:47:43.287Z,13.66
2022-09-06T20:50:12.420Z,13.62
2022-09-06T20:52:40.964Z,13.58
2022-09-06T20:55:10.350Z,13.54
2022-09-06T20:57:39.000Z,13.51
2022-09-06T21:00:14.254Z,13.47
2022-09-06T21:02:43.027Z,13.43
2022-09-06T21:05:11.505Z,13.40
2022-09-06T21:07:39.934Z,13.36
2022-09-06T21:10:09.137Z,13.32
2022-09-06T21:12:37.619Z,13.28
2022-09-06T21:15:07.525Z,13.25
2022-09-06T21:17:38.231Z,13.20
2022-09-06T21:20:08.502Z,13.15
2022-09-06T21:22:36.859Z,13.10
2022-09-06T21:25:06.678Z,13.07
2022-09-06T21:27:37.179Z,13.03
2022-09-06T21:30:08.096Z,13.00
2022-09-06T21:32:36.668Z,12.97
2022-09-06T21:35:07.038Z,12.94
2022-09-06T21:37:35.444Z,12.90
2022-09-06T21:40:05.235Z,12.86
2022-09-06T21:42:33.731Z,12.81
2022-09-06T21:45:02.183Z,12.77
2022-09-06T21:47:30.960Z,12.72
2022-09-06T21:49:59.341Z,12.68
2022-09-06T21:52:31.810Z,12.64
2022-09-06T21:55:00.221Z,12.60
2022-09-06T21:57:28.640Z,12.58
2022-09-06T21:59:57.152Z,12.53
2022-09-06T22:02:26.543Z,12.49
2022-09-06T22:04:55.416Z,12.46
2022-09-06T22:07:24.337Z,12.42
2022-09-06T22:09:53.243Z,12.37
2022-09-06T22:12:22.123Z,12.32
2022-09-06T22:14:51.299Z,12.27
2022-09-06T22:17:20.838Z,12.23
2022-09-06T22:19:49.793Z,12.18
2022-09-06T22:22:18.779Z,12.13
2022-09-06T22:24:48.037Z,12.09
2022-09-06T22:27:19.318Z,12.05
2022-09-06T22:29:48.246Z,12.01
2022-09-06T22:32:18.778Z,11.97
2022-09-06T22:34:47.676Z,11.94
2022-09-06T22:37:16.740Z,11.89
2022-09-06T22:39:47.536Z,11.86
2022-09-06T22:42:16.548Z,11.83
2022-09-06T22:44:45.416Z,11.79
2022-09-06T22:47:14.579Z,11.76
2022-09-06T22:49:43.532Z,11.73
2022-09-06T22:52:12.860Z,11.71
2022-09-06T22:54:41.883Z,11.68
2022-09-06T22:57:10.756Z,11.66
2022-09-06T22:59:39.776Z,11.63
2022-09-06T23:02:08.669Z,11.60
2022-09-06T23:04:37.588Z,11.56
2022-09-06T23:07:06.740Z,11.53
2022-09-06T23:09:36.143Z,11.49
2022-09-06T23:12:05.387Z,11.45
2022-09-06T23:14:34.358Z,11.43
2022-09-06T23:17:03.334Z,11.41
2022-09-06T23:19:32.319Z,11.40
2022-09-06T23:22:01.314Z,11.37
2022-09-06T23:24:30.262Z,11.35
2022-09-06T23:26:59.835Z,11.32
2022-09-06T23:29:28.927Z,11.29
2022-09-06T23:31:57.802Z,11.27
2022-09-06T23:34:26.850Z,11.25
2022-09-06T23:36:59.493Z,11.22
2022-09-06T23:39:28.848Z,11.20
2022-09-06T23:41:57.825Z,11.17
2022-09-06T23:44:26.691Z,11.13
2022-09-06T23:46:55.641Z,11.10
2022-09-06T23:49:24.713Z,11.07
2022-09-06T23:51:53.567Z,11.06
2022-09-06T23:54:22.474Z,11.04
2022-09-06T23:56:53.054Z,11.02
2022-09-06T23:59:21.917Z,11.01
